Terminal Aerodrome Forecast
Issued by NWS

Home | Current Version | Previous Version | Text Only | Print | Product List | Glossary On
Versions: 1 2 3 4 5 6 7 8 9 10 11 12 13 14 15
737
FTUS44 KEWX 231122
TAFSSF
TAF
KSSF 231122Z 2312/2412 13003KT P6SM SCT014
      TEMPO 2312/2314 BKN014
     FM231600 15007KT P6SM FEW050 FEW250
     FM232200 13010KT P6SM SCT070 SCT250
     FM241000 15004KT P6SM BKN015=

USA.gov is the U.S. government's official web portal to all federal, state and local government web resources and services.